Time;durP1;ratioP1;P1;durP2;ratioP2;P2;SDS_P1;SDS_P2;PMS_P1;PMS_P2;Temp;Humidity;BMP_temperature;BMP_pressure;BME280_temperature;BME280_humidity;BME280_pressure;Samples;Min_cycle;Max_cycle;Signal;HPM_P1;HPM_P2
2022/10/13 00:00:05;;;;;;;12.50;6.67;;;10.00;99.90;;;;;;5031048;28;20425;-48
2022/10/13 00:02:38;;;;;;;17.33;8.53;;;9.70;99.90;;;;;;5031400;28;20663;-48
2022/10/13 00:05:05;;;;;;;11.53;6.67;;;9.30;99.90;;;;;;5031518;28;20483;-48
2022/10/13 00:07:33;;;;;;;9.43;6.13;;;9.60;99.90;;;;;;5031718;28;20428;-48
2022/10/13 00:10:00;;;;;;;11.90;6.20;;;9.40;99.90;;;;;;5030976;28;20436;-48
2022/10/13 00:12:26;;;;;;;13.37;6.90;;;9.60;99.90;;;;;;5031417;28;20509;-48
2022/10/13 00:14:53;;;;;;;14.83;7.33;;;9.90;99.90;;;;;;5031376;28;20438;-48
2022/10/13 00:17:19;;;;;;;12.53;6.30;;;9.60;99.90;;;;;;5031490;28;20406;-49
2022/10/13 00:19:46;;;;;;;9.57;6.10;;;9.40;99.90;;;;;;5030971;28;20439;-49
2022/10/13 00:22:13;;;;;;;12.10;6.67;;;9.50;99.90;;;;;;5031277;28;20425;-49
2022/10/13 00:24:42;;;;;;;11.53;6.73;;;10.20;99.90;;;;;;5031227;28;20467;-49
2022/10/13 00:27:09;;;;;;;14.50;7.40;;;9.60;99.90;;;;;;5031246;28;20808;-49
2022/10/13 00:29:35;;;;;;;11.80;7.03;;;9.60;99.90;;;;;;5030940;28;20443;-49
2022/10/13 00:32:02;;;;;;;10.27;6.30;;;9.50;99.90;;;;;;5031274;28;20451;-49
2022/10/13 00:34:28;;;;;;;12.40;7.00;;;9.80;99.90;;;;;;5031204;28;20423;-48
2022/10/13 00:36:55;;;;;;;11.93;7.40;;;9.20;99.90;;;;;;5031394;28;20443;-47
2022/10/13 00:39:22;;;;;;;15.60;6.60;;;9.50;99.90;;;;;;5029567;28;20440;-47
2022/10/13 00:41:49;;;;;;;10.10;6.87;;;9.60;99.90;;;;;;5031286;28;20924;-48
2022/10/13 00:44:54;;;;;;;16.30;7.20;;;9.50;99.90;;;;;;5031044;28;20471;-48
2022/10/13 00:47:21;;;;;;;15.43;6.80;;;9.40;99.90;;;;;;5031275;28;20442;-48
2022/10/13 00:49:48;;;;;;;17.87;7.30;;;9.30;99.90;;;;;;5030585;28;20530;-48
2022/10/13 00:52:17;;;;;;;16.13;6.80;;;9.30;99.90;;;;;;5031113;28;20447;-48
2022/10/13 00:54:44;;;;;;;13.70;6.40;;;9.40;99.90;;;;;;5031049;28;20813;-48
2022/10/13 00:57:13;;;;;;;10.90;6.90;;;9.40;99.90;;;;;;5030996;28;20935;-48
2022/10/13 00:59:40;;;;;;;17.03;6.20;;;9.50;99.90;;;;;;5030558;28;20442;-48
2022/10/13 01:02:08;;;;;;;12.30;7.37;;;9.80;99.90;;;;;;5029465;28;20534;-49
2022/10/13 01:04:40;;;;;;;13.00;7.57;;;9.40;99.90;;;;;;5030878;28;20450;-49
2022/10/13 01:07:08;;;;;;;10.70;5.80;;;9.70;99.90;;;;;;5033092;28;20927;-49
2022/10/13 01:09:36;;;;;;;11.80;7.40;;;8.90;99.90;;;;;;5034134;28;20410;-49
2022/10/13 01:12:11;;;;;;;12.27;6.60;;;9.40;99.90;;;;;;5034270;28;20455;-49
2022/10/13 01:14:48;;;;;;;10.53;6.20;;;9.30;99.90;;;;;;5034547;28;20434;-49
2022/10/13 01:17:27;;;;;;;12.50;7.20;;;9.40;99.90;;;;;;5034320;28;20514;-49
2022/10/13 01:20:26;;;;;;;15.00;6.80;;;9.50;99.90;;;;;;5033901;28;20431;-49
2022/10/13 01:23:09;;;;;;;12.67;6.87;;;9.60;99.90;;;;;;5034152;28;20455;-49
2022/10/13 01:26:14;;;;;;;12.70;5.93;;;9.30;99.90;;;;;;5034364;28;20482;-49
2022/10/13 01:29:12;;;;;;;9.43;6.57;;;9.40;99.90;;;;;;5033793;28;20857;-49
2022/10/13 01:31:49;;;;;;;13.13;7.03;;;9.40;99.90;;;;;;5033988;28;20459;-49
2022/10/13 01:34:21;;;;;;;14.40;6.80;;;9.60;99.90;;;;;;5034114;28;20918;-49
2022/10/13 01:36:53;;;;;;;10.43;6.13;;;9.50;99.90;;;;;;5032815;28;20448;-49
2022/10/13 01:39:26;;;;;;;13.77;7.40;;;9.40;99.90;;;;;;5033823;28;20428;-48
2022/10/13 01:42:00;;;;;;;11.17;7.00;;;9.70;99.90;;;;;;5033675;28;20476;-49
2022/10/13 01:44:32;;;;;;;11.37;7.60;;;9.60;99.90;;;;;;5033982;28;21018;-49
2022/10/13 01:47:01;;;;;;;14.87;8.23;;;9.20;99.90;;;;;;5033775;28;20920;-49
2022/10/13 01:49:32;;;;;;;10.87;6.30;;;9.30;99.90;;;;;;5033280;28;20936;-49
2022/10/13 01:52:02;;;;;;;13.63;8.30;;;9.60;99.90;;;;;;5033705;28;20450;-49
2022/10/13 01:54:29;;;;;;;12.73;7.83;;;9.10;99.90;;;;;;5033634;28;20932;-48
2022/10/13 01:56:59;;;;;;;16.43;7.20;;;9.00;99.90;;;;;;5033821;28;20835;-48
2022/10/13 01:59:28;;;;;;;18.43;7.67;;;9.40;99.90;;;;;;5033238;28;20440;-48
2022/10/13 02:02:05;;;;;;;12.50;6.90;;;9.60;99.90;;;;;;5033893;28;20458;-48
2022/10/13 02:04:45;;;;;;;15.83;7.83;;;9.80;99.90;;;;;;5033464;28;20983;-48
2022/10/13 02:07:21;;;;;;;13.60;7.20;;;9.20;99.90;;;;;;5033352;28;20430;-47
2022/10/13 02:09:56;;;;;;;22.80;8.60;;;9.10;99.90;;;;;;5032886;28;20443;-49
2022/10/13 02:12:29;;;;;;;20.27;7.43;;;9.30;99.90;;;;;;5033338;28;20839;-48
2022/10/13 02:14:58;;;;;;;10.87;6.40;;;9.30;99.90;;;;;;5033263;28;20436;-50
2022/10/13 02:17:27;;;;;;;13.70;8.13;;;9.10;99.90;;;;;;5031081;28;20443;-48
2022/10/13 02:19:55;;;;;;;13.40;7.00;;;9.10;99.90;;;;;;5032550;28;20444;-48
2022/10/13 02:22:27;;;;;;;20.40;7.20;;;9.70;99.90;;;;;;5033118;28;20455;-48
2022/10/13 02:24:55;;;;;;;11.60;7.83;;;9.30;99.90;;;;;;5033066;28;20946;-48
2022/10/13 02:27:22;;;;;;;10.70;6.70;;;9.00;99.90;;;;;;5033446;28;20438;-48
2022/10/13 02:29:50;;;;;;;19.23;7.33;;;9.20;99.90;;;;;;5031580;28;20449;-48
2022/10/13 02:32:19;;;;;;;17.07;7.83;;;9.30;99.90;;;;;;5033276;28;21017;-49
2022/10/13 02:34:46;;;;;;;18.03;7.53;;;9.30;99.90;;;;;;5033278;28;20436;-49
2022/10/13 02:37:13;;;;;;;9.63;7.33;;;9.20;99.90;;;;;;5033434;28;20928;-49
2022/10/13 02:39:40;;;;;;;16.40;8.10;;;9.20;99.90;;;;;;5031230;28;20501;-48
2022/10/13 02:42:11;;;;;;;10.20;7.50;;;9.40;99.90;;;;;;5032533;28;20470;-49
2022/10/13 02:44:38;;;;;;;13.87;7.03;;;9.40;99.90;;;;;;5032635;28;20481;-49
2022/10/13 02:47:05;;;;;;;15.37;7.60;;;9.40;99.90;;;;;;5031490;28;20810;-48
2022/10/13 02:49:32;;;;;;;18.03;7.50;;;8.90;99.90;;;;;;5032247;28;20447;-48
2022/10/13 02:52:00;;;;;;;12.10;7.00;;;8.90;99.90;;;;;;5032456;28;20460;-48
2022/10/13 02:54:26;;;;;;;13.83;8.07;;;9.20;99.90;;;;;;5032509;28;20791;-49
2022/10/13 02:56:53;;;;;;;15.03;7.87;;;9.20;99.90;;;;;;5032390;28;20436;-48
2022/10/13 02:59:19;;;;;;;17.47;7.73;;;8.90;99.90;;;;;;5031968;28;20431;-48
2022/10/13 03:01:46;;;;;;;17.97;8.20;;;9.20;99.90;;;;;;5032584;28;20818;-48
2022/10/13 03:04:13;;;;;;;11.93;7.47;;;8.90;99.90;;;;;;5032592;28;20439;-48
2022/10/13 03:06:39;;;;;;;12.83;7.30;;;9.40;99.90;;;;;;5032628;28;20491;-48
2022/10/13 03:09:08;;;;;;;10.30;7.33;;;9.10;99.90;;;;;;5031739;28;20784;-48
2022/10/13 03:11:35;;;;;;;15.23;8.10;;;8.70;99.90;;;;;;5032024;28;20468;-48
2022/10/13 03:14:01;;;;;;;15.83;7.77;;;8.40;99.90;;;;;;5032207;28;20432;-49
2022/10/13 03:16:28;;;;;;;14.00;8.13;;;8.90;99.90;;;;;;5032226;28;20509;-49
2022/10/13 03:18:55;;;;;;;16.87;8.20;;;8.80;99.90;;;;;;5031641;28;20492;-49
2022/10/13 03:21:22;;;;;;;9.03;7.57;;;9.10;99.90;;;;;;5032152;28;20435;-48
2022/10/13 03:23:48;;;;;;;16.07;8.33;;;9.00;99.90;;;;;;5032007;28;20446;-49
2022/10/13 03:26:16;;;;;;;11.03;7.90;;;9.20;99.90;;;;;;5031964;28;20483;-49
2022/10/13 03:28:43;;;;;;;15.00;7.30;;;9.10;99.90;;;;;;5031410;28;20436;-49
2022/10/13 03:31:11;;;;;;;15.60;8.03;;;9.10;99.90;;;;;;5031821;28;20454;-49
2022/10/13 03:33:39;;;;;;;13.77;8.30;;;8.90;99.90;;;;;;5031722;28;20442;-49
2022/10/13 03:36:07;;;;;;;16.67;8.50;;;8.90;99.90;;;;;;5031888;28;20434;-49
2022/10/13 03:38:35;;;;;;;18.93;8.93;;;8.80;99.90;;;;;;5031269;28;20441;-49
2022/10/13 03:41:05;;;;;;;13.30;8.20;;;9.00;99.90;;;;;;5031626;28;21011;-49
2022/10/13 03:43:33;;;;;;;13.30;8.90;;;8.90;99.90;;;;;;5031645;28;20411;-49
2022/10/13 03:46:01;;;;;;;17.07;9.27;;;8.80;99.90;;;;;;5031478;28;20483;-49
2022/10/13 03:48:29;;;;;;;14.20;9.03;;;8.50;99.90;;;;;;5031167;28;20794;-49
2022/10/13 03:50:56;;;;;;;19.30;9.90;;;9.00;99.90;;;;;;5031348;28;20465;-49
2022/10/13 03:53:24;;;;;;;11.20;7.23;;;8.90;99.90;;;;;;5031559;28;20521;-49
2022/10/13 03:55:51;;;;;;;11.90;8.23;;;9.10;99.90;;;;;;5031491;28;20501;-49
2022/10/13 03:58:18;;;;;;;15.53;9.30;;;8.80;99.90;;;;;;5031524;28;20884;-49
2022/10/13 04:00:47;;;;;;;16.53;8.30;;;9.20;99.90;;;;;;5031072;28;20443;-49
2022/10/13 04:03:14;;;;;;;11.30;7.93;;;9.10;99.90;;;;;;5031551;28;20559;-49
2022/10/13 04:05:41;;;;;;;16.03;8.60;;;9.10;99.90;;;;;;5031416;28;20967;-49
2022/10/13 04:08:07;;;;;;;12.37;8.30;;;9.10;99.90;;;;;;5031365;28;20440;-50
2022/10/13 04:10:34;;;;;;;14.50;8.53;;;8.90;99.90;;;;;;5031265;28;20526;-49
2022/10/13 04:13:01;;;;;;;11.80;8.23;;;8.70;99.90;;;;;;5031318;28;20459;-49
2022/10/13 04:15:27;;;;;;;18.03;8.40;;;9.20;99.90;;;;;;5031407;28;20431;-49
2022/10/13 04:17:55;;;;;;;13.77;7.87;;;9.20;99.90;;;;;;5031241;28;20928;-48
2022/10/13 04:20:22;;;;;;;10.63;6.77;;;9.20;99.90;;;;;;5031150;28;20442;-48
2022/10/13 04:22:48;;;;;;;19.27;9.33;;;9.10;99.90;;;;;;5031696;28;20455;-48
2022/10/13 04:25:15;;;;;;;19.80;8.80;;;9.20;99.90;;;;;;5031673;28;20783;-48
2022/10/13 04:27:42;;;;;;;13.90;9.50;;;9.30;99.90;;;;;;5031179;28;20440;-48
2022/10/13 04:30:10;;;;;;;15.80;9.20;;;9.70;99.90;;;;;;5031261;28;20461;-48
2022/10/13 04:32:36;;;;;;;12.63;9.20;;;9.20;99.90;;;;;;5031152;28;20451;-48
2022/10/13 04:35:05;;;;;;;16.37;8.90;;;9.20;99.90;;;;;;5031260;28;20448;-49
2022/10/13 04:37:32;;;;;;;15.40;8.60;;;9.30;99.90;;;;;;5031055;28;20412;-49
2022/10/13 04:39:58;;;;;;;19.77;9.07;;;9.20;99.90;;;;;;5030914;28;20475;-49
2022/10/13 04:42:25;;;;;;;14.73;8.67;;;9.40;99.90;;;;;;5058151;22;20703;-50
2022/10/13 04:44:51;;;;;;;13.80;8.53;;;9.20;99.90;;;;;;5035427;28;20440;-50
2022/10/13 04:47:21;;;;;;;13.87;10.50;;;9.00;99.90;;;;;;5035286;28;20435;-50
2022/10/13 04:49:47;;;;;;;13.40;8.57;;;9.70;99.90;;;;;;5034932;28;20413;-51
2022/10/13 04:52:15;;;;;;;14.47;8.57;;;9.10;99.90;;;;;;5035149;28;20447;-50
2022/10/13 04:54:44;;;;;;;19.47;10.17;;;9.60;99.90;;;;;;5035190;28;20526;-50
2022/10/13 04:57:10;;;;;;;10.00;8.43;;;9.60;99.90;;;;;;5034609;28;20527;-50
2022/10/13 04:59:37;;;;;;;14.40;9.50;;;9.20;99.90;;;;;;5034704;28;20446;-50
2022/10/13 05:02:04;;;;;;;14.87;10.67;;;9.40;99.90;;;;;;5034774;28;20462;-50
2022/10/13 05:04:30;;;;;;;12.93;9.60;;;9.30;99.90;;;;;;5035259;28;20788;-50
2022/10/13 05:06:57;;;;;;;15.90;8.90;;;9.40;99.90;;;;;;5034743;28;20627;-50
2022/10/13 05:09:25;;;;;;;13.03;8.93;;;9.20;99.90;;;;;;5034711;28;20798;-50
2022/10/13 05:11:53;;;;;;;14.23;8.63;;;9.40;99.90;;;;;;5034770;28;20447;-51
2022/10/13 05:14:20;;;;;;;12.63;9.07;;;9.00;99.90;;;;;;5034651;28;20448;-50
2022/10/13 05:16:47;;;;;;;15.17;8.57;;;9.50;99.90;;;;;;5034582;28;20504;-50
2022/10/13 05:19:15;;;;;;;14.73;8.20;;;10.00;99.90;;;;;;5016235;28;20447;-50
2022/10/13 05:21:41;;;;;;;14.20;9.30;;;9.30;99.90;;;;;;5034501;28;20410;-49
2022/10/13 05:24:12;;;;;;;13.97;9.07;;;9.40;99.90;;;;;;5034647;28;20436;-50
2022/10/13 05:26:42;;;;;;;18.40;9.50;;;9.60;99.90;;;;;;5034143;28;20446;-50
2022/10/13 05:29:09;;;;;;;16.77;9.67;;;9.60;99.90;;;;;;5034135;28;20435;-50
2022/10/13 05:31:37;;;;;;;19.90;10.53;;;9.60;99.90;;;;;;5034236;28;20439;-50
2022/10/13 05:34:03;;;;;;;18.73;10.23;;;9.30;99.90;;;;;;5034435;28;20486;-50
2022/10/13 05:36:31;;;;;;;19.23;9.80;;;9.60;99.90;;;;;;5016200;28;20448;-51
2022/10/13 05:39:00;;;;;;;18.07;9.93;;;9.50;99.90;;;;;;5034190;28;20475;-50
2022/10/13 05:41:28;;;;;;;21.53;10.27;;;9.10;99.90;;;;;;5033920;28;20485;-51
2022/10/13 05:43:58;;;;;;;15.00;10.13;;;9.50;99.90;;;;;;5015355;28;20505;-50
2022/10/13 05:46:25;;;;;;;21.83;10.30;;;9.60;99.90;;;;;;5034151;28;20817;-50
2022/10/13 05:48:52;;;;;;;18.43;10.40;;;9.80;99.90;;;;;;5033436;28;20431;-50
2022/10/13 05:51:23;;;;;;;17.50;10.73;;;9.40;99.90;;;;;;5033568;28;20432;-50
2022/10/13 05:53:54;;;;;;;14.87;9.67;;;9.40;99.90;;;;;;5033481;28;20431;-50
2022/10/13 05:56:25;;;;;;;16.00;9.53;;;9.80;99.90;;;;;;5033924;28;20747;-49
2022/10/13 05:58:58;;;;;;;21.33;10.50;;;9.70;99.90;;;;;;5033742;28;20439;-50
2022/10/13 06:01:28;;;;;;;17.10;10.63;;;9.70;99.90;;;;;;5033694;28;20967;-51
2022/10/13 06:04:01;;;;;;;12.67;9.67;;;9.60;99.90;;;;;;5033865;28;20406;-51
2022/10/13 06:06:28;;;;;;;18.80;10.40;;;9.90;99.90;;;;;;5033321;28;20812;-51
2022/10/13 06:08:55;;;;;;;17.73;9.23;;;9.10;99.90;;;;;;5033047;28;20414;-49
2022/10/13 06:11:22;;;;;;;22.87;11.77;;;9.40;99.90;;;;;;5033296;28;20414;-51
2022/10/13 06:13:48;;;;;;;22.70;10.57;;;9.60;99.90;;;;;;5033518;28;20993;-50
2022/10/13 06:16:16;;;;;;;14.37;9.97;;;9.60;99.90;;;;;;5033155;28;20435;-50
2022/10/13 06:18:43;;;;;;;15.60;10.07;;;9.60;99.90;;;;;;5033405;28;20932;-50
2022/10/13 06:21:10;;;;;;;16.67;11.23;;;9.60;99.90;;;;;;5033435;28;20451;-50
2022/10/13 06:23:36;;;;;;;17.00;11.13;;;9.70;99.90;;;;;;5033310;28;20451;-51
2022/10/13 06:26:03;;;;;;;15.43;10.60;;;9.70;99.90;;;;;;5033453;28;20507;-50
2022/10/13 06:28:31;;;;;;;15.33;10.87;;;9.90;99.90;;;;;;5032783;28;20399;-51
2022/10/13 06:30:57;;;;;;;26.43;11.93;;;9.40;99.90;;;;;;5033342;28;20837;-49
2022/10/13 06:33:26;;;;;;;16.83;12.03;;;10.20;99.90;;;;;;5033004;28;20447;-50
2022/10/13 06:35:53;;;;;;;21.57;10.97;;;9.60;99.90;;;;;;5032912;28;20471;-50
2022/10/13 06:38:20;;;;;;;17.67;11.07;;;9.80;99.90;;;;;;5015582;28;20454;-50
2022/10/13 06:40:47;;;;;;;21.37;11.30;;;9.70;99.90;;;;;;5015453;28;20628;-50
2022/10/13 06:43:14;;;;;;;18.60;11.37;;;9.30;99.90;;;;;;5014820;28;20513;-50
2022/10/13 06:45:41;;;;;;;13.23;10.40;;;10.30;99.90;;;;;;5032740;28;20427;-50
2022/10/13 06:48:08;;;;;;;19.70;11.90;;;9.80;99.90;;;;;;5032287;28;20478;-50
2022/10/13 06:50:36;;;;;;;21.73;12.80;;;10.20;99.90;;;;;;5032378;28;20435;-50
2022/10/13 06:53:03;;;;;;;23.17;12.33;;;9.90;99.90;;;;;;5032532;28;20491;-50
2022/10/13 06:55:29;;;;;;;16.30;12.73;;;10.00;99.90;;;;;;5032381;28;20462;-50
2022/10/13 06:57:56;;;;;;;22.53;12.30;;;10.10;99.90;;;;;;5014582;28;20448;-50
2022/10/13 07:00:23;;;;;;;17.80;11.40;;;10.40;99.90;;;;;;5032201;28;20447;-50
2022/10/13 07:02:51;;;;;;;21.97;12.50;;;9.80;99.90;;;;;;5032019;28;20455;-51
2022/10/13 07:05:18;;;;;;;23.30;12.17;;;9.40;99.90;;;;;;5031937;28;20464;-50
2022/10/13 07:07:46;;;;;;;19.03;11.20;;;10.40;99.90;;;;;;5032606;28;20454;-50
2022/10/13 07:10:13;;;;;;;16.50;12.53;;;9.70;99.90;;;;;;5032339;28;20622;-51
2022/10/13 07:12:40;;;;;;;20.03;12.33;;;10.30;99.90;;;;;;5032245;28;20451;-50
2022/10/13 07:15:08;;;;;;;22.30;13.40;;;10.00;99.90;;;;;;5032432;28;20494;-50
2022/10/13 07:17:34;;;;;;;17.97;12.07;;;10.20;99.90;;;;;;5032076;28;20887;-51
2022/10/13 07:20:02;;;;;;;22.00;11.07;;;10.20;99.90;;;;;;5032005;28;20527;-50
2022/10/13 07:22:29;;;;;;;20.00;11.80;;;10.60;99.90;;;;;;5032054;28;20795;-49
2022/10/13 07:24:57;;;;;;;18.63;11.60;;;10.30;99.90;;;;;;5031684;28;20432;-50
2022/10/13 07:27:23;;;;;;;19.70;12.67;;;10.80;99.90;;;;;;5031865;28;20475;-51
2022/10/13 07:29:50;;;;;;;19.40;12.60;;;9.80;99.90;;;;;;5031734;28;20414;-51
2022/10/13 07:32:17;;;;;;;25.57;13.87;;;10.30;99.90;;;;;;5031621;28;20490;-51
2022/10/13 07:34:44;;;;;;;21.73;14.43;;;10.50;99.90;;;;;;5032006;28;20433;-51
2022/10/13 07:37:10;;;;;;;21.87;12.37;;;10.50;99.90;;;;;;5032188;28;20433;-50
2022/10/13 07:39:38;;;;;;;28.03;13.00;;;10.60;99.90;;;;;;5032019;28;20473;-50
2022/10/13 07:42:05;;;;;;;17.60;13.80;;;10.50;99.90;;;;;;5031994;28;20537;-51
2022/10/13 07:44:32;;;;;;;18.40;12.30;;;10.60;99.90;;;;;;5032127;28;20789;-49
2022/10/13 07:46:59;;;;;;;18.50;12.07;;;10.60;99.90;;;;;;5031959;28;20483;-50
2022/10/13 07:49:25;;;;;;;18.10;13.80;;;10.20;99.90;;;;;;5031924;28;20803;-49
2022/10/13 07:51:52;;;;;;;18.67;12.30;;;10.70;99.90;;;;;;5032334;28;20470;-50
2022/10/13 07:54:19;;;;;;;23.77;13.93;;;10.90;99.90;;;;;;5032308;28;20485;-50
2022/10/13 07:56:45;;;;;;;23.20;14.83;;;11.30;99.90;;;;;;5032069;28;20804;-50
2022/10/13 07:59:13;;;;;;;17.50;12.67;;;11.40;99.90;;;;;;5031891;28;20538;-50
2022/10/13 08:01:40;;;;;;;18.37;13.00;;;11.50;99.90;;;;;;5031951;28;20428;-49
2022/10/13 08:04:07;;;;;;;17.00;12.90;;;11.50;99.90;;;;;;5032407;28;20436;-50
2022/10/13 08:06:34;;;;;;;21.07;12.63;;;11.10;99.90;;;;;;5031885;28;20967;-51
2022/10/13 08:09:03;;;;;;;20.10;14.20;;;11.20;99.90;;;;;;5031955;28;20436;-50
2022/10/13 08:11:30;;;;;;;22.10;12.77;;;11.00;99.90;;;;;;5031247;28;20497;-50
2022/10/13 08:13:59;;;;;;;24.73;13.77;;;11.50;99.90;;;;;;5014064;28;20475;-50
2022/10/13 08:16:28;;;;;;;18.67;14.03;;;10.90;99.90;;;;;;5032888;28;20441;-50
2022/10/13 08:18:56;;;;;;;16.63;13.03;;;11.40;99.90;;;;;;5034978;28;20440;-52
2022/10/13 08:21:22;;;;;;;19.87;14.00;;;11.30;99.90;;;;;;5035197;28;20472;-50
2022/10/13 08:23:49;;;;;;;23.07;15.53;;;11.80;99.90;;;;;;5035333;28;20986;-50
2022/10/13 08:26:19;;;;;;;19.67;14.63;;;11.90;99.90;;;;;;5035341;28;20437;-50
2022/10/13 08:28:46;;;;;;;20.77;14.80;;;12.40;99.90;;;;;;5034972;28;20437;-50
2022/10/13 08:31:13;;;;;;;19.83;13.90;;;11.80;99.90;;;;;;5035535;28;20450;-50
2022/10/13 08:33:41;;;;;;;22.80;16.20;;;12.20;99.90;;;;;;5035165;28;20846;-49
2022/10/13 08:36:09;;;;;;;31.60;17.40;;;12.20;99.90;;;;;;5035207;28;20433;-50
2022/10/13 08:38:36;;;;;;;19.40;14.80;;;12.10;99.90;;;;;;5034871;28;20427;-50
2022/10/13 08:41:04;;;;;;;16.37;13.60;;;12.30;99.90;;;;;;5035190;28;20446;-50
2022/10/13 08:43:30;;;;;;;24.63;16.60;;;12.20;99.90;;;;;;5034938;28;20464;-50
2022/10/13 08:46:00;;;;;;;25.40;16.90;;;12.40;99.90;;;;;;5017231;28;20475;-50
2022/10/13 08:48:32;;;;;;;19.10;14.93;;;12.40;99.90;;;;;;5034856;28;20490;-49
2022/10/13 08:51:05;;;;;;;20.23;15.07;;;12.60;99.90;;;;;;5034772;28;20435;-50
2022/10/13 08:53:35;;;;;;;25.23;15.70;;;12.60;99.90;;;;;;5035304;28;20486;-50
2022/10/13 08:56:07;;;;;;;34.63;16.07;;;12.80;99.90;;;;;;5034958;28;20771;-51
2022/10/13 08:58:37;;;;;;;22.43;14.47;;;12.80;99.90;;;;;;5034757;28;20492;-50
2022/10/13 09:01:13;;;;;;;20.30;15.20;;;12.90;99.90;;;;;;5034478;28;20529;-49
2022/10/13 09:03:48;;;;;;;21.03;14.40;;;13.20;99.90;;;;;;5034925;28;20548;-50
2022/10/13 09:06:26;;;;;;;22.20;14.93;;;12.90;99.90;;;;;;5034719;28;20430;-50
2022/10/13 09:08:55;;;;;;;18.50;13.40;;;13.20;99.90;;;;;;5034332;28;20445;-49
2022/10/13 09:11:22;;;;;;;22.00;16.00;;;12.90;99.90;;;;;;5035011;28;20438;-49
2022/10/13 09:13:54;;;;;;;21.77;15.90;;;13.90;99.90;;;;;;5034786;28;21031;-49
2022/10/13 09:16:27;;;;;;;19.80;15.37;;;13.80;99.90;;;;;;5034541;28;20433;-49
2022/10/13 09:18:53;;;;;;;22.03;15.00;;;13.50;99.90;;;;;;5016559;28;20447;-50
2022/10/13 09:21:25;;;;;;;18.80;15.73;;;14.10;99.90;;;;;;5034337;28;20539;-50
2022/10/13 09:24:04;;;;;;;18.40;15.00;;;14.00;99.90;;;;;;5034515;28;21002;-50
2022/10/13 09:26:37;;;;;;;22.80;15.23;;;13.70;99.90;;;;;;5016300;28;20458;-51
2022/10/13 09:29:08;;;;;;;19.53;15.90;;;14.00;99.90;;;;;;5033941;28;20538;-51
2022/10/13 09:31:36;;;;;;;23.13;17.23;;;14.00;99.90;;;;;;5034012;28;20526;-50
2022/10/13 09:34:13;;;;;;;23.87;15.27;;;14.10;99.90;;;;;;5034465;28;20530;-51
2022/10/13 09:36:55;;;;;;;25.67;16.63;;;14.00;99.90;;;;;;5034339;28;20454;-53
2022/10/13 09:39:22;;;;;;;20.90;15.87;;;14.30;99.90;;;;;;5033840;28;20434;-50
2022/10/13 09:41:49;;;;;;;26.13;15.30;;;14.60;99.90;;;;;;5034297;28;20463;-50
2022/10/13 09:44:19;;;;;;;21.37;18.17;;;14.30;99.90;;;;;;5034266;28;20923;-51
2022/10/13 09:46:49;;;;;;;27.13;15.97;;;14.20;99.90;;;;;;5034375;28;20508;-50
2022/10/13 09:49:30;;;;;;;19.20;14.30;;;14.70;99.90;;;;;;5033789;28;20428;-52
2022/10/13 09:52:02;;;;;;;20.93;15.83;;;15.00;99.90;;;;;;5033609;28;20462;-51
2022/10/13 09:54:38;;;;;;;19.83;15.40;;;14.40;99.90;;;;;;5033402;28;20435;-51
2022/10/13 09:57:12;;;;;;;35.80;22.20;;;14.70;99.90;;;;;;5033171;28;20419;-50
2022/10/13 09:59:43;;;;;;;20.40;15.70;;;14.60;99.90;;;;;;5033133;28;20946;-51
2022/10/13 10:02:19;;;;;;;20.27;15.97;;;14.70;99.90;;;;;;5033971;28;20460;-50
2022/10/13 10:04:47;;;;;;;23.40;15.80;;;14.60;99.90;;;;;;5034013;28;20501;-50
2022/10/13 10:07:20;;;;;;;22.97;16.90;;;14.20;99.90;;;;;;5033955;28;20476;-49
2022/10/13 10:09:50;;;;;;;25.47;19.03;;;14.90;99.90;;;;;;5033683;28;20515;-50
2022/10/13 10:12:22;;;;;;;27.57;19.20;;;14.90;99.90;;;;;;5034520;28;20458;-50
2022/10/13 10:14:49;;;;;;;22.03;18.20;;;14.90;99.90;;;;;;5033600;28;20960;-50
2022/10/13 10:17:23;;;;;;;32.33;19.50;;;14.50;99.90;;;;;;5034022;28;20466;-50
2022/10/13 10:19:59;;;;;;;27.67;18.83;;;15.10;99.90;;;;;;5033275;28;20450;-50
2022/10/13 10:22:35;;;;;;;28.30;17.73;;;15.00;99.90;;;;;;5033275;28;20455;-50
2022/10/13 10:25:18;;;;;;;27.80;17.30;;;15.00;99.90;;;;;;5032998;28;20514;-51
2022/10/13 10:27:55;;;;;;;21.13;17.57;;;15.20;99.90;;;;;;5033774;28;20477;-49
2022/10/13 10:30:24;;;;;;;21.23;17.33;;;15.10;99.90;;;;;;5037288;28;20542;-50
2022/10/13 10:32:55;;;;;;;22.60;17.30;;;14.90;99.90;;;;;;5032714;28;20470;-50
2022/10/13 10:35:38;;;;;;;24.00;19.00;;;15.30;99.90;;;;;;5033014;28;20945;-50
2022/10/13 10:38:19;;;;;;;23.30;15.87;;;15.20;99.90;;;;;;5015654;28;20457;-49
2022/10/13 10:40:50;;;;;;;26.03;18.30;;;15.30;99.90;;;;;;5033094;28;20435;-49
2022/10/13 10:43:30;;;;;;;20.60;18.30;;;15.20;99.90;;;;;;5046725;22;20506;-48
2022/10/13 10:45:59;;;;;;;23.70;17.83;;;15.20;99.90;;;;;;5045879;28;20442;-46
2022/10/13 10:48:34;;;;;;;25.13;17.80;;;15.70;99.90;;;;;;5043558;28;20482;-47
2022/10/13 10:51:01;;;;;;;19.57;15.93;;;15.60;99.90;;;;;;5024406;28;20443;-47
2022/10/13 10:53:38;;;;;;;23.80;17.80;;;15.40;99.90;;;;;;5032247;28;20555;-46
2022/10/13 10:56:11;;;;;;;20.87;17.20;;;15.50;99.90;;;;;;5032654;28;20487;-47
2022/10/13 10:58:48;;;;;;;25.30;18.00;;;15.60;99.90;;;;;;5031965;28;21174;-46
2022/10/13 11:01:28;;;;;;;21.37;19.17;;;15.50;99.90;;;;;;5032467;28;20442;-47
2022/10/13 11:04:00;;;;;;;29.00;17.93;;;15.70;99.90;;;;;;5012178;28;20464;-46
2022/10/13 11:06:35;;;;;;;26.77;21.33;;;15.60;99.90;;;;;;5027982;28;20940;-48
2022/10/13 11:09:04;;;;;;;20.83;18.60;;;15.80;99.90;;;;;;5031451;28;20863;-47
2022/10/13 11:11:39;;;;;;;26.40;20.13;;;15.60;99.90;;;;;;5031613;28;20487;-46
2022/10/13 11:14:30;;;;;;;20.33;17.73;;;15.80;99.90;;;;;;5030751;28;20996;-46
2022/10/13 11:17:18;;;;;;;20.77;18.27;;;15.80;99.90;;;;;;5019751;28;20900;-46
2022/10/13 11:19:46;;;;;;;26.73;19.17;;;15.80;99.90;;;;;;5031637;28;20448;-46
2022/10/13 11:22:24;;;;;;;22.73;18.27;;;15.50;99.90;;;;;;5031438;28;20467;-48
2022/10/13 11:25:23;;;;;;;22.50;17.90;;;15.90;99.90;;;;;;5031326;28;20431;-48
2022/10/13 11:27:51;;;;;;;22.80;18.10;;;16.20;99.90;;;;;;5031331;28;20490;-48
2022/10/13 11:30:46;;;;;;;24.43;16.80;;;15.90;99.90;;;;;;5031257;28;20460;-48
2022/10/13 11:33:32;;;;;;;27.47;17.63;;;16.10;99.90;;;;;;5018000;28;20475;-47
2022/10/13 11:36:46;;;;;;;21.97;16.63;;;15.80;99.90;;;;;;5031411;28;20444;-48
2022/10/13 11:40:00;;;;;;;25.47;17.13;;;16.20;99.90;;;;;;5030687;28;20454;-47
2022/10/13 11:42:51;;;;;;;17.40;15.57;;;16.10;99.90;;;;;;5031046;28;20442;-48
2022/10/13 11:45:36;;;;;;;24.87;16.30;;;15.90;99.90;;;;;;5031280;28;20543;-47
2022/10/13 11:48:25;;;;;;;18.53;15.17;;;16.00;99.90;;;;;;5030999;28;20480;-48
2022/10/13 11:51:04;;;;;;;20.90;16.27;;;16.20;99.90;;;;;;5031116;28;20449;-48
2022/10/13 11:53:41;;;;;;;23.23;16.43;;;16.20;99.90;;;;;;5031081;28;20415;-45
2022/10/13 11:56:19;;;;;;;22.70;15.33;;;16.50;99.90;;;;;;5031557;28;20782;-48
2022/10/13 11:58:46;;;;;;;21.87;15.77;;;16.10;99.90;;;;;;5031076;28;20444;-47
2022/10/13 12:01:16;;;;;;;22.93;16.00;;;16.40;99.90;;;;;;5032100;28;20428;-46
2022/10/13 12:03:44;;;;;;;19.23;14.83;;;16.40;99.90;;;;;;5031594;28;20490;-45
2022/10/13 12:06:31;;;;;;;17.93;14.50;;;16.30;99.90;;;;;;5031530;28;20447;-46
2022/10/13 12:09:00;;;;;;;23.30;14.90;;;16.40;99.90;;;;;;5030712;28;20456;-49
2022/10/13 12:11:29;;;;;;;20.10;15.13;;;16.60;99.90;;;;;;5031081;28;20917;-47
2022/10/13 12:13:57;;;;;;;26.80;15.07;;;16.50;99.90;;;;;;5030539;28;21010;-47
2022/10/13 12:16:25;;;;;;;20.20;14.83;;;16.80;99.90;;;;;;5013834;28;21010;-45
2022/10/13 12:18:51;;;;;;;24.20;15.23;;;16.80;99.90;;;;;;5031119;28;20432;-47
2022/10/13 12:21:21;;;;;;;17.20;14.60;;;16.80;99.90;;;;;;5030812;28;20452;-47
2022/10/13 12:23:49;;;;;;;15.37;13.30;;;16.90;99.90;;;;;;5030933;28;20477;-47
2022/10/13 12:26:17;;;;;;;19.93;15.07;;;17.00;99.90;;;;;;5022981;28;20447;-47
2022/10/13 12:28:49;;;;;;;21.60;15.20;;;17.40;99.90;;;;;;5030808;28;20503;-47
2022/10/13 12:31:21;;;;;;;23.30;16.40;;;17.00;99.90;;;;;;5030895;28;20444;-47
2022/10/13 12:33:54;;;;;;;16.73;12.67;;;16.90;99.90;;;;;;5030995;28;20455;-47
2022/10/13 12:36:26;;;;;;;17.40;13.10;;;17.10;99.90;;;;;;5028874;28;20447;-48
2022/10/13 12:38:56;;;;;;;24.43;13.37;;;17.30;99.90;;;;;;5010582;28;20446;-46
2022/10/13 12:41:25;;;;;;;16.50;12.80;;;17.30;99.90;;;;;;5010857;28;20471;-47
2022/10/13 12:43:53;;;;;;;15.23;11.40;;;17.20;99.90;;;;;;5013326;28;20989;-47
2022/10/13 12:46:35;;;;;;;18.00;13.47;;;17.40;99.90;;;;;;5013936;28;20941;-49
2022/10/13 12:49:14;;;;;;;16.53;11.70;;;17.70;99.90;;;;;;5029926;28;20472;-48
2022/10/13 12:51:41;;;;;;;14.77;12.67;;;17.60;99.90;;;;;;5029177;28;20454;-46